sensor_id;sensor_type;location;lat;lon;timestamp;P1;durP1;ratioP1;P2;durP2;ratioP2
27412;SDS011;14871;52.702;5.230;2023-06-14T00:01:23;7.80;;;3.03;;
27412;SDS011;14871;52.702;5.230;2023-06-14T00:03:50;5.13;;;2.95;;
27412;SDS011;14871;52.702;5.230;2023-06-14T00:06:15;4.35;;;2.58;;
27412;SDS011;14871;52.702;5.230;2023-06-14T00:08:42;7.68;;;2.65;;
27412;SDS011;14871;52.702;5.230;2023-06-14T00:11:08;6.20;;;3.25;;
27412;SDS011;14871;52.702;5.230;2023-06-14T00:13:33;12.43;;;3.22;;
27412;SDS011;14871;52.702;5.230;2023-06-14T00:15:59;5.82;;;2.70;;
27412;SDS011;14871;52.702;5.230;2023-06-14T00:18:24;7.45;;;2.75;;
27412;SDS011;14871;52.702;5.230;2023-06-14T00:20:54;9.90;;;2.95;;
27412;SDS011;14871;52.702;5.230;2023-06-14T00:23:20;8.18;;;3.17;;
27412;SDS011;14871;52.702;5.230;2023-06-14T00:25:46;4.82;;;2.90;;
27412;SDS011;14871;52.702;5.230;2023-06-14T00:28:12;5.18;;;2.65;;
27412;SDS011;14871;52.702;5.230;2023-06-14T00:30:38;6.70;;;2.70;;
27412;SDS011;14871;52.702;5.230;2023-06-14T00:33:03;5.88;;;2.95;;
27412;SDS011;14871;52.702;5.230;2023-06-14T00:35:30;9.80;;;2.88;;
27412;SDS011;14871;52.702;5.230;2023-06-14T00:37:56;4.05;;;2.67;;
27412;SDS011;14871;52.702;5.230;2023-06-14T00:40:22;6.35;;;3.08;;
27412;SDS011;14871;52.702;5.230;2023-06-14T00:42:48;7.35;;;2.83;;
27412;SDS011;14871;52.702;5.230;2023-06-14T00:45:13;6.50;;;2.92;;
27412;SDS011;14871;52.702;5.230;2023-06-14T00:47:40;6.13;;;2.47;;
27412;SDS011;14871;52.702;5.230;2023-06-14T00:50:07;8.40;;;3.47;;
27412;SDS011;14871;52.702;5.230;2023-06-14T00:52:34;5.03;;;2.95;;
27412;SDS011;14871;52.702;5.230;2023-06-14T00:55:01;8.85;;;3.47;;
27412;SDS011;14871;52.702;5.230;2023-06-14T00:57:27;7.93;;;2.50;;
27412;SDS011;14871;52.702;5.230;2023-06-14T00:59:54;9.90;;;2.83;;
27412;SDS011;14871;52.702;5.230;2023-06-14T01:02:20;6.85;;;2.67;;
27412;SDS011;14871;52.702;5.230;2023-06-14T01:04:47;5.65;;;2.75;;
27412;SDS011;14871;52.702;5.230;2023-06-14T01:13:05;8.65;;;2.28;;
27412;SDS011;14871;52.702;5.230;2023-06-14T01:15:46;11.13;;;2.20;;
27412;SDS011;14871;52.702;5.230;2023-06-14T01:18:12;7.38;;;3.00;;
27412;SDS011;14871;52.702;5.230;2023-06-14T01:20:44;5.85;;;2.38;;
27412;SDS011;14871;52.702;5.230;2023-06-14T01:23:15;6.03;;;2.60;;
27412;SDS011;14871;52.702;5.230;2023-06-14T01:25:45;4.32;;;2.42;;
27412;SDS011;14871;52.702;5.230;2023-06-14T01:28:12;5.03;;;2.95;;
27412;SDS011;14871;52.702;5.230;2023-06-14T01:30:41;7.95;;;2.80;;
27412;SDS011;14871;52.702;5.230;2023-06-14T01:33:18;7.82;;;3.13;;
27412;SDS011;14871;52.702;5.230;2023-06-14T01:35:46;10.48;;;2.65;;
27412;SDS011;14871;52.702;5.230;2023-06-14T01:38:13;6.65;;;2.45;;
27412;SDS011;14871;52.702;5.230;2023-06-14T01:40:40;6.85;;;2.55;;
27412;SDS011;14871;52.702;5.230;2023-06-14T01:43:08;6.78;;;2.40;;
27412;SDS011;14871;52.702;5.230;2023-06-14T01:45:35;4.60;;;2.72;;
27412;SDS011;14871;52.702;5.230;2023-06-14T01:48:01;4.72;;;2.63;;
27412;SDS011;14871;52.702;5.230;2023-06-14T01:50:28;4.55;;;2.85;;
27412;SDS011;14871;52.702;5.230;2023-06-14T01:52:57;6.95;;;2.78;;
27412;SDS011;14871;52.702;5.230;2023-06-14T01:55:23;7.78;;;2.65;;
27412;SDS011;14871;52.702;5.230;2023-06-14T01:57:52;5.78;;;2.58;;
27412;SDS011;14871;52.702;5.230;2023-06-14T02:00:18;3.55;;;2.50;;
27412;SDS011;14871;52.702;5.230;2023-06-14T02:02:44;3.75;;;2.53;;
27412;SDS011;14871;52.702;5.230;2023-06-14T02:05:11;8.50;;;2.40;;
27412;SDS011;14871;52.702;5.230;2023-06-14T02:07:36;6.03;;;2.47;;
27412;SDS011;14871;52.702;5.230;2023-06-14T02:10:05;5.70;;;2.30;;
27412;SDS011;14871;52.702;5.230;2023-06-14T02:12:31;6.50;;;2.40;;
27412;SDS011;14871;52.702;5.230;2023-06-14T02:14:57;5.57;;;2.30;;
27412;SDS011;14871;52.702;5.230;2023-06-14T02:17:23;4.03;;;2.50;;
27412;SDS011;14871;52.702;5.230;2023-06-14T02:19:49;5.50;;;2.40;;
27412;SDS011;14871;52.702;5.230;2023-06-14T02:22:15;4.82;;;2.60;;
27412;SDS011;14871;52.702;5.230;2023-06-14T02:24:41;4.40;;;2.03;;
27412;SDS011;14871;52.702;5.230;2023-06-14T02:27:07;6.45;;;2.00;;
27412;SDS011;14871;52.702;5.230;2023-06-14T02:29:35;7.35;;;2.42;;
27412;SDS011;14871;52.702;5.230;2023-06-14T02:32:01;8.13;;;2.60;;
27412;SDS011;14871;52.702;5.230;2023-06-14T02:34:26;5.50;;;2.17;;
27412;SDS011;14871;52.702;5.230;2023-06-14T02:36:52;6.50;;;2.33;;
27412;SDS011;14871;52.702;5.230;2023-06-14T02:39:17;7.15;;;3.03;;
27412;SDS011;14871;52.702;5.230;2023-06-14T02:41:45;4.75;;;2.40;;
27412;SDS011;14871;52.702;5.230;2023-06-14T02:44:13;6.97;;;2.53;;
27412;SDS011;14871;52.702;5.230;2023-06-14T02:46:38;4.07;;;2.20;;
27412;SDS011;14871;52.702;5.230;2023-06-14T02:49:04;7.20;;;2.22;;
27412;SDS011;14871;52.702;5.230;2023-06-14T02:51:30;7.93;;;2.40;;
27412;SDS011;14871;52.702;5.230;2023-06-14T02:53:56;6.00;;;2.40;;
27412;SDS011;14871;52.702;5.230;2023-06-14T02:56:21;5.07;;;2.63;;
27412;SDS011;14871;52.702;5.230;2023-06-14T02:58:47;5.97;;;3.00;;
27412;SDS011;14871;52.702;5.230;2023-06-14T03:01:13;6.38;;;2.33;;
27412;SDS011;14871;52.702;5.230;2023-06-14T03:03:39;7.82;;;3.10;;
27412;SDS011;14871;52.702;5.230;2023-06-14T03:06:05;2.83;;;2.20;;
27412;SDS011;14871;52.702;5.230;2023-06-14T03:08:34;5.85;;;2.50;;
27412;SDS011;14871;52.702;5.230;2023-06-14T03:11:04;9.25;;;2.58;;
27412;SDS011;14871;52.702;5.230;2023-06-14T03:13:34;6.15;;;2.33;;
27412;SDS011;14871;52.702;5.230;2023-06-14T03:16:00;5.03;;;2.40;;
27412;SDS011;14871;52.702;5.230;2023-06-14T03:18:27;4.68;;;2.15;;
27412;SDS011;14871;52.702;5.230;2023-06-14T03:21:00;5.28;;;2.28;;
27412;SDS011;14871;52.702;5.230;2023-06-14T03:23:28;7.28;;;2.38;;
27412;SDS011;14871;52.702;5.230;2023-06-14T03:25:54;4.68;;;2.47;;
27412;SDS011;14871;52.702;5.230;2023-06-14T03:28:21;6.90;;;2.55;;
27412;SDS011;14871;52.702;5.230;2023-06-14T03:30:46;4.13;;;2.50;;
27412;SDS011;14871;52.702;5.230;2023-06-14T03:33:12;6.07;;;2.55;;
27412;SDS011;14871;52.702;5.230;2023-06-14T03:35:37;3.70;;;2.38;;
27412;SDS011;14871;52.702;5.230;2023-06-14T03:38:03;3.40;;;2.15;;
27412;SDS011;14871;52.702;5.230;2023-06-14T03:40:29;5.82;;;2.40;;
27412;SDS011;14871;52.702;5.230;2023-06-14T03:42:54;4.05;;;2.15;;
27412;SDS011;14871;52.702;5.230;2023-06-14T03:45:20;5.25;;;2.28;;
27412;SDS011;14871;52.702;5.230;2023-06-14T03:47:46;6.47;;;2.53;;
27412;SDS011;14871;52.702;5.230;2023-06-14T03:50:12;8.00;;;2.70;;
27412;SDS011;14871;52.702;5.230;2023-06-14T03:52:38;5.97;;;2.65;;
27412;SDS011;14871;52.702;5.230;2023-06-14T03:55:04;5.78;;;2.40;;
27412;SDS011;14871;52.702;5.230;2023-06-14T03:57:30;5.03;;;2.35;;
27412;SDS011;14871;52.702;5.230;2023-06-14T03:59:56;6.97;;;2.70;;
27412;SDS011;14871;52.702;5.230;2023-06-14T04:02:22;7.22;;;2.60;;
27412;SDS011;14871;52.702;5.230;2023-06-14T04:04:47;8.02;;;2.38;;
27412;SDS011;14871;52.702;5.230;2023-06-14T04:07:16;4.35;;;2.40;;
27412;SDS011;14871;52.702;5.230;2023-06-14T04:09:45;6.85;;;3.28;;
27412;SDS011;14871;52.702;5.230;2023-06-14T04:12:11;6.22;;;2.53;;
27412;SDS011;14871;52.702;5.230;2023-06-14T04:14:40;4.82;;;2.90;;
27412;SDS011;14871;52.702;5.230;2023-06-14T04:17:06;4.97;;;2.58;;
27412;SDS011;14871;52.702;5.230;2023-06-14T04:19:31;4.63;;;2.45;;
27412;SDS011;14871;52.702;5.230;2023-06-14T04:21:58;6.32;;;2.53;;
27412;SDS011;14871;52.702;5.230;2023-06-14T04:24:28;5.13;;;2.30;;
27412;SDS011;14871;52.702;5.230;2023-06-14T04:26:59;3.78;;;2.33;;
27412;SDS011;14871;52.702;5.230;2023-06-14T04:29:26;6.25;;;2.60;;
27412;SDS011;14871;52.702;5.230;2023-06-14T04:31:54;6.18;;;2.83;;
27412;SDS011;14871;52.702;5.230;2023-06-14T04:34:26;4.90;;;2.80;;
27412;SDS011;14871;52.702;5.230;2023-06-14T04:36:58;4.78;;;2.10;;
27412;SDS011;14871;52.702;5.230;2023-06-14T04:39:26;8.43;;;2.65;;
27412;SDS011;14871;52.702;5.230;2023-06-14T04:41:52;7.50;;;2.80;;
27412;SDS011;14871;52.702;5.230;2023-06-14T04:44:22;6.10;;;2.95;;
27412;SDS011;14871;52.702;5.230;2023-06-14T04:46:55;5.60;;;2.55;;
27412;SDS011;14871;52.702;5.230;2023-06-14T04:49:21;4.68;;;2.55;;
27412;SDS011;14871;52.702;5.230;2023-06-14T04:51:48;6.57;;;2.78;;
27412;SDS011;14871;52.702;5.230;2023-06-14T04:54:22;4.88;;;2.85;;
27412;SDS011;14871;52.702;5.230;2023-06-14T04:56:50;5.15;;;2.95;;
27412;SDS011;14871;52.702;5.230;2023-06-14T04:59:16;4.57;;;2.60;;
27412;SDS011;14871;52.702;5.230;2023-06-14T05:01:42;5.53;;;2.50;;
27412;SDS011;14871;52.702;5.230;2023-06-14T05:04:13;3.50;;;2.63;;
27412;SDS011;14871;52.702;5.230;2023-06-14T05:06:43;3.55;;;2.45;;
27412;SDS011;14871;52.702;5.230;2023-06-14T05:09:15;4.28;;;2.58;;
27412;SDS011;14871;52.702;5.230;2023-06-14T05:11:42;5.63;;;2.90;;
27412;SDS011;14871;52.702;5.230;2023-06-14T05:14:09;5.15;;;2.58;;
27412;SDS011;14871;52.702;5.230;2023-06-14T05:16:35;5.57;;;2.65;;
27412;SDS011;14871;52.702;5.230;2023-06-14T05:19:02;7.50;;;3.03;;
27412;SDS011;14871;52.702;5.230;2023-06-14T05:21:29;9.98;;;3.47;;
27412;SDS011;14871;52.702;5.230;2023-06-14T05:23:55;8.90;;;3.05;;
27412;SDS011;14871;52.702;5.230;2023-06-14T05:26:21;5.90;;;2.92;;
27412;SDS011;14871;52.702;5.230;2023-06-14T05:28:48;5.50;;;2.83;;
27412;SDS011;14871;52.702;5.230;2023-06-14T05:31:15;5.55;;;2.72;;
27412;SDS011;14871;52.702;5.230;2023-06-14T05:33:41;8.07;;;3.00;;
27412;SDS011;14871;52.702;5.230;2023-06-14T05:36:06;5.60;;;2.95;;
27412;SDS011;14871;52.702;5.230;2023-06-14T05:38:32;5.65;;;3.10;;
27412;SDS011;14871;52.702;5.230;2023-06-14T05:40:57;3.90;;;2.90;;
27412;SDS011;14871;52.702;5.230;2023-06-14T05:43:24;7.55;;;3.25;;
27412;SDS011;14871;52.702;5.230;2023-06-14T05:45:50;4.10;;;3.58;;
27412;SDS011;14871;52.702;5.230;2023-06-14T05:48:15;6.55;;;2.80;;
27412;SDS011;14871;52.702;5.230;2023-06-14T05:50:41;6.63;;;3.08;;
27412;SDS011;14871;52.702;5.230;2023-06-14T05:53:06;17.98;;;4.50;;
27412;SDS011;14871;52.702;5.230;2023-06-14T05:55:32;10.23;;;3.53;;
27412;SDS011;14871;52.702;5.230;2023-06-14T05:57:58;5.03;;;3.10;;
27412;SDS011;14871;52.702;5.230;2023-06-14T06:00:23;9.80;;;3.38;;
27412;SDS011;14871;52.702;5.230;2023-06-14T06:02:49;9.10;;;3.17;;
27412;SDS011;14871;52.702;5.230;2023-06-14T06:05:14;10.80;;;3.03;;
27412;SDS011;14871;52.702;5.230;2023-06-14T06:07:40;7.68;;;3.20;;
27412;SDS011;14871;52.702;5.230;2023-06-14T06:10:06;7.82;;;3.38;;
27412;SDS011;14871;52.702;5.230;2023-06-14T06:12:32;7.00;;;3.38;;
27412;SDS011;14871;52.702;5.230;2023-06-14T06:14:58;19.80;;;5.15;;
27412;SDS011;14871;52.702;5.230;2023-06-14T06:17:25;7.72;;;3.38;;
27412;SDS011;14871;52.702;5.230;2023-06-14T06:19:51;8.30;;;3.42;;
27412;SDS011;14871;52.702;5.230;2023-06-14T06:22:17;4.65;;;3.05;;
27412;SDS011;14871;52.702;5.230;2023-06-14T06:24:42;4.05;;;3.47;;
27412;SDS011;14871;52.702;5.230;2023-06-14T06:27:08;6.15;;;3.47;;
27412;SDS011;14871;52.702;5.230;2023-06-14T06:29:34;6.80;;;3.00;;
27412;SDS011;14871;52.702;5.230;2023-06-14T06:32:00;9.35;;;3.38;;
27412;SDS011;14871;52.702;5.230;2023-06-14T06:34:26;5.32;;;3.03;;
27412;SDS011;14871;52.702;5.230;2023-06-14T06:36:52;6.30;;;3.53;;
27412;SDS011;14871;52.702;5.230;2023-06-14T06:39:18;7.32;;;4.00;;
27412;SDS011;14871;52.702;5.230;2023-06-14T06:41:44;10.30;;;3.80;;
27412;SDS011;14871;52.702;5.230;2023-06-14T06:44:09;5.30;;;3.30;;
27412;SDS011;14871;52.702;5.230;2023-06-14T06:46:35;4.43;;;3.53;;
27412;SDS011;14871;52.702;5.230;2023-06-14T06:49:05;5.68;;;3.53;;
27412;SDS011;14871;52.702;5.230;2023-06-14T06:51:31;8.52;;;3.38;;
27412;SDS011;14871;52.702;5.230;2023-06-14T06:53:56;4.57;;;2.92;;
27412;SDS011;14871;52.702;5.230;2023-06-14T06:56:22;11.02;;;3.80;;
27412;SDS011;14871;52.702;5.230;2023-06-14T06:58:49;6.68;;;3.75;;
27412;SDS011;14871;52.702;5.230;2023-06-14T07:01:17;7.28;;;3.55;;
27412;SDS011;14871;52.702;5.230;2023-06-14T07:03:44;7.25;;;3.95;;
27412;SDS011;14871;52.702;5.230;2023-06-14T07:06:11;5.40;;;3.50;;
27412;SDS011;14871;52.702;5.230;2023-06-14T07:08:37;8.32;;;4.25;;
27412;SDS011;14871;52.702;5.230;2023-06-14T07:11:06;4.78;;;3.35;;
27412;SDS011;14871;52.702;5.230;2023-06-14T07:13:32;7.80;;;4.20;;
27412;SDS011;14871;52.702;5.230;2023-06-14T07:15:58;9.98;;;3.65;;
27412;SDS011;14871;52.702;5.230;2023-06-14T07:18:25;5.93;;;3.40;;
27412;SDS011;14871;52.702;5.230;2023-06-14T07:20:51;9.20;;;3.60;;
27412;SDS011;14871;52.702;5.230;2023-06-14T07:23:18;9.73;;;3.95;;
27412;SDS011;14871;52.702;5.230;2023-06-14T07:25:45;6.00;;;3.30;;
27412;SDS011;14871;52.702;5.230;2023-06-14T07:28:10;7.03;;;3.13;;
27412;SDS011;14871;52.702;5.230;2023-06-14T07:30:36;6.38;;;3.25;;
27412;SDS011;14871;52.702;5.230;2023-06-14T07:33:01;5.82;;;3.58;;
27412;SDS011;14871;52.702;5.230;2023-06-14T07:35:27;9.57;;;4.57;;
27412;SDS011;14871;52.702;5.230;2023-06-14T07:37:53;4.55;;;3.35;;
27412;SDS011;14871;52.702;5.230;2023-06-14T07:40:19;5.72;;;3.70;;
27412;SDS011;14871;52.702;5.230;2023-06-14T07:42:45;5.10;;;2.95;;
27412;SDS011;14871;52.702;5.230;2023-06-14T07:45:12;4.47;;;3.10;;
27412;SDS011;14871;52.702;5.230;2023-06-14T07:47:39;5.35;;;3.20;;
27412;SDS011;14871;52.702;5.230;2023-06-14T07:50:04;6.07;;;3.25;;
27412;SDS011;14871;52.702;5.230;2023-06-14T07:52:30;8.98;;;3.60;;
27412;SDS011;14871;52.702;5.230;2023-06-14T07:54:56;7.10;;;3.47;;
27412;SDS011;14871;52.702;5.230;2023-06-14T07:57:22;9.40;;;3.53;;
27412;SDS011;14871;52.702;5.230;2023-06-14T07:59:47;6.28;;;3.03;;
27412;SDS011;14871;52.702;5.230;2023-06-14T08:02:13;7.93;;;3.28;;
27412;SDS011;14871;52.702;5.230;2023-06-14T08:04:39;4.72;;;3.08;;
27412;SDS011;14871;52.702;5.230;2023-06-14T08:07:05;5.93;;;3.17;;
27412;SDS011;14871;52.702;5.230;2023-06-14T08:09:32;6.70;;;2.92;;
27412;SDS011;14871;52.702;5.230;2023-06-14T08:11:57;6.97;;;3.00;;
27412;SDS011;14871;52.702;5.230;2023-06-14T08:14:23;6.38;;;2.90;;
27412;SDS011;14871;52.702;5.230;2023-06-14T08:16:49;6.07;;;2.83;;
27412;SDS011;14871;52.702;5.230;2023-06-14T08:19:14;6.07;;;3.00;;
27412;SDS011;14871;52.702;5.230;2023-06-14T08:21:41;5.07;;;2.65;;
27412;SDS011;14871;52.702;5.230;2023-06-14T08:24:08;5.63;;;3.10;;
27412;SDS011;14871;52.702;5.230;2023-06-14T08:26:37;6.97;;;3.20;;
27412;SDS011;14871;52.702;5.230;2023-06-14T08:29:03;4.88;;;3.22;;
27412;SDS011;14871;52.702;5.230;2023-06-14T08:31:29;4.90;;;2.63;;
27412;SDS011;14871;52.702;5.230;2023-06-14T08:33:56;6.60;;;2.65;;
27412;SDS011;14871;52.702;5.230;2023-06-14T08:36:22;5.78;;;2.85;;
27412;SDS011;14871;52.702;5.230;2023-06-14T08:38:48;5.97;;;2.50;;
27412;SDS011;14871;52.702;5.230;2023-06-14T08:41:14;2.30;;;2.10;;
27412;SDS011;14871;52.702;5.230;2023-06-14T08:43:46;8.07;;;2.38;;
27412;SDS011;14871;52.702;5.230;2023-06-14T08:46:12;5.00;;;2.13;;
27412;SDS011;14871;52.702;5.230;2023-06-14T08:48:44;4.43;;;2.40;;
27412;SDS011;14871;52.702;5.230;2023-06-14T08:51:16;4.95;;;2.03;;
27412;SDS011;14871;52.702;5.230;2023-06-14T08:53:44;3.17;;;2.13;;
27412;SDS011;14871;52.702;5.230;2023-06-14T08:56:10;4.53;;;2.22;;
27412;SDS011;14871;52.702;5.230;2023-06-14T08:58:42;5.75;;;2.42;;
27412;SDS011;14871;52.702;5.230;2023-06-14T09:01:10;4.22;;;2.10;;
27412;SDS011;14871;52.702;5.230;2023-06-14T09:03:41;5.15;;;2.55;;
27412;SDS011;14871;52.702;5.230;2023-06-14T09:06:07;5.60;;;2.10;;
27412;SDS011;14871;52.702;5.230;2023-06-14T09:08:39;2.78;;;2.10;;
27412;SDS011;14871;52.702;5.230;2023-06-14T09:11:10;5.40;;;2.17;;
27412;SDS011;14871;52.702;5.230;2023-06-14T09:13:37;4.72;;;2.30;;
27412;SDS011;14871;52.702;5.230;2023-06-14T09:16:04;4.60;;;2.30;;
27412;SDS011;14871;52.702;5.230;2023-06-14T09:18:37;6.55;;;1.98;;
27412;SDS011;14871;52.702;5.230;2023-06-14T09:21:06;4.00;;;1.98;;
27412;SDS011;14871;52.702;5.230;2023-06-14T09:23:39;6.28;;;2.38;;
27412;SDS011;14871;52.702;5.230;2023-06-14T09:26:09;5.18;;;2.25;;
27412;SDS011;14871;52.702;5.230;2023-06-14T09:28:36;5.57;;;2.38;;
27412;SDS011;14871;52.702;5.230;2023-06-14T09:31:05;3.33;;;2.20;;
27412;SDS011;14871;52.702;5.230;2023-06-14T09:33:34;2.72;;;2.45;;
27412;SDS011;14871;52.702;5.230;2023-06-14T09:36:00;3.90;;;1.90;;
27412;SDS011;14871;52.702;5.230;2023-06-14T09:38:26;3.42;;;2.35;;
27412;SDS011;14871;52.702;5.230;2023-06-14T09:40:52;9.00;;;2.42;;
27412;SDS011;14871;52.702;5.230;2023-06-14T09:43:17;5.38;;;2.10;;
27412;SDS011;14871;52.702;5.230;2023-06-14T09:45:44;6.65;;;2.35;;
27412;SDS011;14871;52.702;5.230;2023-06-14T09:48:13;3.85;;;2.35;;
27412;SDS011;14871;52.702;5.230;2023-06-14T09:50:43;4.75;;;2.33;;
27412;SDS011;14871;52.702;5.230;2023-06-14T09:53:11;4.80;;;2.28;;
27412;SDS011;14871;52.702;5.230;2023-06-14T09:55:39;4.70;;;2.03;;
27412;SDS011;14871;52.702;5.230;2023-06-14T09:58:06;3.20;;;2.05;;
27412;SDS011;14871;52.702;5.230;2023-06-14T10:00:33;4.68;;;2.00;;
27412;SDS011;14871;52.702;5.230;2023-06-14T10:03:00;4.07;;;2.10;;
27412;SDS011;14871;52.702;5.230;2023-06-14T10:05:36;4.55;;;2.20;;
27412;SDS011;14871;52.702;5.230;2023-06-14T10:08:09;3.50;;;2.42;;
27412;SDS011;14871;52.702;5.230;2023-06-14T10:10:38;6.82;;;2.20;;
27412;SDS011;14871;52.702;5.230;2023-06-14T10:13:05;3.00;;;1.85;;
27412;SDS011;14871;52.702;5.230;2023-06-14T10:15:38;3.58;;;2.10;;
27412;SDS011;14871;52.702;5.230;2023-06-14T10:23:48;4.57;;;1.98;;
27412;SDS011;14871;52.702;5.230;2023-06-14T10:26:19;5.43;;;2.05;;
27412;SDS011;14871;52.702;5.230;2023-06-14T10:29:01;3.35;;;2.10;;
27412;SDS011;14871;52.702;5.230;2023-06-14T10:31:48;4.35;;;2.38;;
27412;SDS011;14871;52.702;5.230;2023-06-14T10:34:25;3.60;;;1.98;;
27412;SDS011;14871;52.702;5.230;2023-06-14T10:39:44;3.38;;;2.13;;
27412;SDS011;14871;52.702;5.230;2023-06-14T10:42:13;6.38;;;2.03;;
27412;SDS011;14871;52.702;5.230;2023-06-14T10:47:30;5.15;;;1.85;;
27412;SDS011;14871;52.702;5.230;2023-06-14T10:49:58;3.30;;;2.22;;
27412;SDS011;14871;52.702;5.230;2023-06-14T10:52:28;4.22;;;2.10;;
27412;SDS011;14871;52.702;5.230;2023-06-14T10:55:05;6.68;;;2.28;;
27412;SDS011;14871;52.702;5.230;2023-06-14T10:57:34;3.97;;;1.90;;
27412;SDS011;14871;52.702;5.230;2023-06-14T11:00:02;3.88;;;2.33;;
27412;SDS011;14871;52.702;5.230;2023-06-14T11:05:23;2.67;;;2.35;;
27412;SDS011;14871;52.702;5.230;2023-06-14T11:10:38;3.30;;;1.77;;
27412;SDS011;14871;52.702;5.230;2023-06-14T11:13:08;6.28;;;1.63;;
27412;SDS011;14871;52.702;5.230;2023-06-14T11:15:35;4.15;;;2.10;;
27412;SDS011;14871;52.702;5.230;2023-06-14T11:18:05;3.70;;;1.58;;
27412;SDS011;14871;52.702;5.230;2023-06-14T11:20:33;3.20;;;1.80;;
27412;SDS011;14871;52.702;5.230;2023-06-14T11:23:00;2.70;;;2.00;;
27412;SDS011;14871;52.702;5.230;2023-06-14T11:25:26;5.65;;;1.90;;
27412;SDS011;14871;52.702;5.230;2023-06-14T11:27:55;3.83;;;1.73;;
27412;SDS011;14871;52.702;5.230;2023-06-14T11:30:21;2.65;;;1.85;;
27412;SDS011;14871;52.702;5.230;2023-06-14T11:32:47;7.80;;;2.03;;
27412;SDS011;14871;52.702;5.230;2023-06-14T11:35:14;6.88;;;2.40;;
27412;SDS011;14871;52.702;5.230;2023-06-14T11:37:40;4.68;;;2.00;;
27412;SDS011;14871;52.702;5.230;2023-06-14T11:40:07;4.05;;;1.65;;
27412;SDS011;14871;52.702;5.230;2023-06-14T11:42:37;7.10;;;1.77;;
27412;SDS011;14871;52.702;5.230;2023-06-14T11:45:08;29.38;;;3.83;;
27412;SDS011;14871;52.702;5.230;2023-06-14T11:47:35;9.88;;;2.20;;
27412;SDS011;14871;52.702;5.230;2023-06-14T11:50:02;16.60;;;2.78;;
27412;SDS011;14871;52.702;5.230;2023-06-14T11:52:29;7.50;;;1.70;;
27412;SDS011;14871;52.702;5.230;2023-06-14T11:54:55;3.75;;;1.60;;
27412;SDS011;14871;52.702;5.230;2023-06-14T11:57:22;6.93;;;1.67;;
27412;SDS011;14871;52.702;5.230;2023-06-14T11:59:48;2.47;;;1.88;;
27412;SDS011;14871;52.702;5.230;2023-06-14T12:02:14;3.08;;;1.73;;
27412;SDS011;14871;52.702;5.230;2023-06-14T12:04:41;3.17;;;1.40;;
27412;SDS011;14871;52.702;5.230;2023-06-14T12:10:26;5.70;;;1.77;;
27412;SDS011;14871;52.702;5.230;2023-06-14T12:12:27;7.07;;;2.00;;
27412;SDS011;14871;52.702;5.230;2023-06-14T12:14:55;3.17;;;1.85;;
27412;SDS011;14871;52.702;5.230;2023-06-14T12:17:21;6.57;;;1.45;;
27412;SDS011;14871;52.702;5.230;2023-06-14T12:19:48;1.85;;;1.58;;
27412;SDS011;14871;52.702;5.230;2023-06-14T12:22:15;3.15;;;1.75;;
27412;SDS011;14871;52.702;5.230;2023-06-14T12:24:45;5.22;;;1.75;;
27412;SDS011;14871;52.702;5.230;2023-06-14T12:27:11;4.88;;;1.95;;
27412;SDS011;14871;52.702;5.230;2023-06-14T12:29:43;7.35;;;1.80;;
27412;SDS011;14871;52.702;5.230;2023-06-14T12:32:09;2.97;;;1.67;;
27412;SDS011;14871;52.702;5.230;2023-06-14T12:34:35;3.55;;;1.70;;
27412;SDS011;14871;52.702;5.230;2023-06-14T12:37:01;3.28;;;2.00;;
27412;SDS011;14871;52.702;5.230;2023-06-14T12:39:29;3.33;;;1.52;;
27412;SDS011;14871;52.702;5.230;2023-06-14T12:41:56;2.33;;;1.80;;
27412;SDS011;14871;52.702;5.230;2023-06-14T12:44:22;4.10;;;1.75;;
27412;SDS011;14871;52.702;5.230;2023-06-14T12:46:48;3.53;;;1.80;;
27412;SDS011;14871;52.702;5.230;2023-06-14T12:49:16;2.72;;;1.75;;
27412;SDS011;14871;52.702;5.230;2023-06-14T12:51:42;4.03;;;2.03;;
27412;SDS011;14871;52.702;5.230;2023-06-14T12:54:07;3.90;;;1.90;;
27412;SDS011;14871;52.702;5.230;2023-06-14T12:56:33;6.22;;;1.80;;
27412;SDS011;14871;52.702;5.230;2023-06-14T12:58:59;3.10;;;1.67;;
27412;SDS011;14871;52.702;5.230;2023-06-14T13:01:25;4.22;;;1.60;;
27412;SDS011;14871;52.702;5.230;2023-06-14T13:03:51;3.03;;;1.45;;
27412;SDS011;14871;52.702;5.230;2023-06-14T13:06:20;2.33;;;1.60;;
27412;SDS011;14871;52.702;5.230;2023-06-14T13:08:47;2.88;;;1.67;;
27412;SDS011;14871;52.702;5.230;2023-06-14T13:11:13;3.75;;;1.60;;
27412;SDS011;14871;52.702;5.230;2023-06-14T13:13:39;4.65;;;1.63;;
27412;SDS011;14871;52.702;5.230;2023-06-14T13:16:05;2.95;;;1.50;;
27412;SDS011;14871;52.702;5.230;2023-06-14T13:18:31;6.60;;;1.70;;
27412;SDS011;14871;52.702;5.230;2023-06-14T13:20:56;4.47;;;1.73;;
27412;SDS011;14871;52.702;5.230;2023-06-14T13:23:22;1.90;;;1.70;;
27412;SDS011;14871;52.702;5.230;2023-06-14T13:25:48;2.28;;;1.58;;
27412;SDS011;14871;52.702;5.230;2023-06-14T13:28:16;5.07;;;1.60;;
27412;SDS011;14871;52.702;5.230;2023-06-14T13:30:41;6.85;;;1.70;;
27412;SDS011;14871;52.702;5.230;2023-06-14T13:33:07;4.18;;;1.70;;
27412;SDS011;14871;52.702;5.230;2023-06-14T13:35:33;2.80;;;2.03;;
27412;SDS011;14871;52.702;5.230;2023-06-14T13:37:59;6.57;;;1.67;;
27412;SDS011;14871;52.702;5.230;2023-06-14T13:40:25;1.75;;;1.40;;
27412;SDS011;14871;52.702;5.230;2023-06-14T13:42:51;4.32;;;1.60;;
27412;SDS011;14871;52.702;5.230;2023-06-14T13:45:16;3.67;;;1.35;;
27412;SDS011;14871;52.702;5.230;2023-06-14T13:47:42;2.40;;;1.83;;
27412;SDS011;14871;52.702;5.230;2023-06-14T13:50:08;4.03;;;1.42;;
27412;SDS011;14871;52.702;5.230;2023-06-14T13:52:33;2.92;;;1.58;;
27412;SDS011;14871;52.702;5.230;2023-06-14T13:55:00;3.80;;;1.50;;
27412;SDS011;14871;52.702;5.230;2023-06-14T13:57:26;4.60;;;1.30;;
27412;SDS011;14871;52.702;5.230;2023-06-14T13:59:51;5.22;;;1.80;;
27412;SDS011;14871;52.702;5.230;2023-06-14T14:02:20;3.90;;;1.50;;
27412;SDS011;14871;52.702;5.230;2023-06-14T14:04:46;2.90;;;1.52;;
27412;SDS011;14871;52.702;5.230;2023-06-14T14:07:17;3.60;;;1.30;;
27412;SDS011;14871;52.702;5.230;2023-06-14T14:09:44;5.15;;;1.30;;
27412;SDS011;14871;52.702;5.230;2023-06-14T14:12:09;2.85;;;1.73;;
27412;SDS011;14871;52.702;5.230;2023-06-14T14:14:36;3.40;;;1.50;;
27412;SDS011;14871;52.702;5.230;2023-06-14T14:17:02;3.40;;;1.50;;
27412;SDS011;14871;52.702;5.230;2023-06-14T14:19:27;5.32;;;1.58;;
27412;SDS011;14871;52.702;5.230;2023-06-14T14:21:53;4.60;;;1.80;;
27412;SDS011;14871;52.702;5.230;2023-06-14T14:24:19;3.80;;;1.67;;
27412;SDS011;14871;52.702;5.230;2023-06-14T14:26:44;4.93;;;1.55;;
27412;SDS011;14871;52.702;5.230;2023-06-14T14:29:13;3.83;;;1.60;;
27412;SDS011;14871;52.702;5.230;2023-06-14T14:31:39;3.15;;;1.58;;
27412;SDS011;14871;52.702;5.230;2023-06-14T14:34:05;4.50;;;1.55;;
27412;SDS011;14871;52.702;5.230;2023-06-14T14:36:30;5.50;;;1.70;;
27412;SDS011;14871;52.702;5.230;2023-06-14T14:38:56;4.30;;;1.65;;
27412;SDS011;14871;52.702;5.230;2023-06-14T14:41:21;4.00;;;1.50;;
27412;SDS011;14871;52.702;5.230;2023-06-14T14:43:47;3.63;;;1.88;;
27412;SDS011;14871;52.702;5.230;2023-06-14T14:46:13;4.88;;;2.55;;
27412;SDS011;14871;52.702;5.230;2023-06-14T14:48:38;2.42;;;1.63;;
27412;SDS011;14871;52.702;5.230;2023-06-14T14:51:04;4.43;;;1.92;;
27412;SDS011;14871;52.702;5.230;2023-06-14T14:53:30;2.92;;;1.75;;
27412;SDS011;14871;52.702;5.230;2023-06-14T14:55:55;4.68;;;1.60;;
27412;SDS011;14871;52.702;5.230;2023-06-14T14:58:21;3.78;;;1.73;;
27412;SDS011;14871;52.702;5.230;2023-06-14T15:00:47;3.13;;;1.80;;
27412;SDS011;14871;52.702;5.230;2023-06-14T15:03:13;3.85;;;1.80;;
27412;SDS011;14871;52.702;5.230;2023-06-14T15:05:40;3.85;;;1.67;;
27412;SDS011;14871;52.702;5.230;2023-06-14T15:08:10;3.95;;;1.83;;
27412;SDS011;14871;52.702;5.230;2023-06-14T15:10:41;2.50;;;1.60;;
27412;SDS011;14871;52.702;5.230;2023-06-14T15:13:08;5.53;;;1.85;;